Time;durP1;ratioP1;P1;durP2;ratioP2;P2;SDS_P1;SDS_P2;PMS_P1;PMS_P2;Temp;Humidity;BMP_temperature;BMP_pressure;BME280_temperature;BME280_humidity;BME280_pressure;Samples;Min_cycle;Max_cycle;Signal;HPM_P1;HPM_P2
2022/07/14 00:02:11;;;;;;;14.45;3.05;;;16.90;99.90;;;;;;4973869;28;20530;-73
2022/07/14 00:04:55;;;;;;;12.10;2.40;;;16.90;99.90;;;;;;4972051;28;20446;-74
2022/07/14 00:07:39;;;;;;;13.63;2.50;;;16.90;99.90;;;;;;4988541;28;20402;-74
2022/07/14 00:10:23;;;;;;;12.95;2.75;;;16.90;99.90;;;;;;4968027;28;20426;-73
2022/07/14 00:13:07;;;;;;;14.90;3.40;;;16.90;99.90;;;;;;4971656;28;20468;-74
2022/07/14 00:15:51;;;;;;;15.00;3.20;;;16.80;99.90;;;;;;4988022;28;20420;-74
2022/07/14 00:18:43;;;;;;;15.13;2.90;;;16.80;99.90;;;;;;4983460;28;20453;-73
2022/07/14 00:21:27;;;;;;;12.30;2.65;;;16.80;99.90;;;;;;4976088;28;20409;-73
2022/07/14 00:24:12;;;;;;;14.43;2.75;;;16.80;99.90;;;;;;4977223;28;20401;-73
2022/07/14 00:26:57;;;;;;;17.02;3.33;;;16.80;99.90;;;;;;4967668;28;20399;-74
2022/07/14 00:29:41;;;;;;;12.57;3.00;;;16.80;99.90;;;;;;4989603;28;20473;-73
2022/07/14 00:32:25;;;;;;;15.57;3.28;;;16.70;99.90;;;;;;4977198;28;20417;-73
2022/07/14 00:35:09;;;;;;;13.02;3.10;;;16.70;99.90;;;;;;4973804;28;20825;-74
2022/07/14 00:37:53;;;;;;;14.65;3.17;;;16.60;99.90;;;;;;4990276;28;20405;-74
2022/07/14 00:40:37;;;;;;;15.77;3.60;;;16.60;99.90;;;;;;4988179;28;20464;-73
2022/07/14 00:43:22;;;;;;;14.43;2.83;;;16.50;99.90;;;;;;4975906;28;20421;-74
2022/07/14 00:46:07;;;;;;;15.40;3.25;;;16.50;99.90;;;;;;4992468;28;20418;-74
2022/07/14 00:48:51;;;;;;;12.18;2.80;;;16.50;99.90;;;;;;4986316;28;20461;-73
2022/07/14 00:51:35;;;;;;;12.23;3.20;;;16.40;99.90;;;;;;4991598;28;20409;-73
2022/07/14 00:54:26;;;;;;;12.63;2.83;;;16.40;99.90;;;;;;4992584;28;20397;-73
2022/07/14 00:57:10;;;;;;;16.45;3.25;;;16.30;99.90;;;;;;4975582;28;20453;-73
2022/07/14 00:59:54;;;;;;;15.70;3.33;;;16.30;99.90;;;;;;4978209;28;20454;-73
2022/07/14 01:02:38;;;;;;;18.35;3.40;;;16.30;99.90;;;;;;4990551;28;20408;-73
2022/07/14 01:05:23;;;;;;;13.57;3.00;;;16.30;99.90;;;;;;4977389;28;20715;-74
2022/07/14 01:08:07;;;;;;;11.98;2.95;;;16.20;99.90;;;;;;4977895;28;20409;-73
2022/07/14 01:10:51;;;;;;;14.82;3.20;;;16.20;99.90;;;;;;4988930;28;20429;-74
2022/07/14 01:13:36;;;;;;;13.52;2.88;;;16.10;99.90;;;;;;4993421;28;20453;-73
2022/07/14 01:16:21;;;;;;;13.77;3.05;;;16.00;99.90;;;;;;4990699;28;20418;-73
2022/07/14 01:19:05;;;;;;;14.15;2.95;;;15.90;99.90;;;;;;4988353;28;20390;-73
2022/07/14 01:21:56;;;;;;;9.65;3.00;;;15.90;99.90;;;;;;4987821;28;20410;-73
2022/07/14 01:24:40;;;;;;;16.08;3.28;;;15.80;99.90;;;;;;4989414;28;20969;-73
2022/07/14 01:27:24;;;;;;;13.00;3.45;;;15.70;99.90;;;;;;4976969;28;20398;-73
2022/07/14 01:30:09;;;;;;;14.35;3.15;;;15.70;99.90;;;;;;4987260;28;20429;-73
2022/07/14 01:32:53;;;;;;;15.00;3.42;;;15.60;99.90;;;;;;4990121;28;20476;-74
2022/07/14 01:35:37;;;;;;;16.70;3.17;;;15.60;99.90;;;;;;4988352;28;20413;-73
2022/07/14 01:38:21;;;;;;;14.45;3.20;;;15.60;99.90;;;;;;4987667;28;20392;-73
2022/07/14 01:41:06;;;;;;;13.02;2.92;;;15.60;99.90;;;;;;4986496;28;20469;-73
2022/07/14 01:43:50;;;;;;;14.70;3.13;;;15.50;99.90;;;;;;4972683;28;20420;-73
2022/07/14 01:46:34;;;;;;;12.57;3.35;;;15.40;99.90;;;;;;4988312;28;20505;-73
2022/07/14 01:49:18;;;;;;;15.00;3.45;;;15.40;99.90;;;;;;4990869;28;21065;-73
2022/07/14 01:52:03;;;;;;;13.10;2.93;;;15.40;99.90;;;;;;4983617;28;20397;-73
2022/07/14 01:54:48;;;;;;;13.63;3.42;;;15.40;99.90;;;;;;4991561;28;20884;-73
2022/07/14 01:57:32;;;;;;;16.63;3.55;;;15.40;99.90;;;;;;4982412;28;20409;-73
2022/07/14 02:00:16;;;;;;;14.00;3.80;;;15.30;99.90;;;;;;4973834;28;20494;-74
2022/07/14 02:03:00;;;;;;;12.23;3.13;;;15.20;99.90;;;;;;4985992;28;20442;-73
2022/07/14 02:05:45;;;;;;;13.88;3.70;;;15.10;99.90;;;;;;4976132;28;20546;-74
2022/07/14 02:08:29;;;;;;;13.82;3.42;;;15.10;99.90;;;;;;4976407;28;21017;-74
2022/07/14 02:14:16;;;;;;;13.25;3.15;;;14.90;99.90;;;;;;4983286;28;20469;-74
2022/07/14 02:17:00;;;;;;;12.27;3.40;;;14.80;99.90;;;;;;4985824;28;20415;-73
2022/07/14 02:19:45;;;;;;;16.53;3.10;;;14.80;99.90;;;;;;4972813;28;20425;-74
2022/07/14 02:22:29;;;;;;;14.13;3.22;;;14.80;99.90;;;;;;4964007;28;20419;-73
2022/07/14 02:25:13;;;;;;;16.27;3.20;;;14.90;99.90;;;;;;4975954;28;20945;-74
2022/07/14 02:27:57;;;;;;;12.50;3.58;;;14.90;99.90;;;;;;4994403;28;20490;-73
2022/07/14 02:30:41;;;;;;;11.48;3.35;;;14.80;99.90;;;;;;4971045;28;20425;-73
2022/07/14 02:33:25;;;;;;;15.77;3.47;;;14.80;99.90;;;;;;4987651;28;20873;-74
2022/07/14 02:36:09;;;;;;;14.57;3.53;;;14.90;99.90;;;;;;4989263;28;20429;-73
2022/07/14 02:38:54;;;;;;;13.23;3.42;;;14.90;99.90;;;;;;4988936;28;20494;-73
2022/07/14 02:41:38;;;;;;;13.77;3.50;;;15.00;99.90;;;;;;4982241;28;20453;-73
2022/07/14 02:44:22;;;;;;;14.65;3.58;;;14.90;99.90;;;;;;4984125;28;20408;-73
2022/07/14 02:47:06;;;;;;;14.38;3.70;;;14.80;99.90;;;;;;4988257;28;20422;-73
2022/07/14 02:49:50;;;;;;;13.93;3.70;;;14.70;99.90;;;;;;4976265;28;20472;-73
2022/07/14 02:52:34;;;;;;;12.32;3.38;;;14.80;99.90;;;;;;4985992;28;20476;-73
2022/07/14 02:55:18;;;;;;;11.88;3.70;;;14.80;99.90;;;;;;4989346;28;20452;-73
2022/07/14 02:58:06;;;;;;;14.43;3.75;;;14.70;99.90;;;;;;4976195;28;20413;-74
2022/07/14 03:00:51;;;;;;;12.60;3.70;;;14.60;99.90;;;;;;4989344;28;20408;-74
2022/07/14 03:03:36;;;;;;;13.13;3.83;;;14.70;99.90;;;;;;4983659;28;20398;-73
2022/07/14 03:06:20;;;;;;;13.77;3.90;;;14.70;99.90;;;;;;4973006;28;20510;-74
2022/07/14 03:09:05;;;;;;;11.35;3.88;;;14.70;99.90;;;;;;4988652;28;20464;-73
2022/07/14 03:11:48;;;;;;;16.70;4.32;;;14.70;99.90;;;;;;4989041;28;20504;-73
2022/07/14 03:14:32;;;;;;;14.38;4.47;;;14.60;99.90;;;;;;4988168;28;20412;-73
2022/07/14 03:17:17;;;;;;;15.98;4.60;;;14.60;99.90;;;;;;4981891;28;20390;-74
2022/07/14 03:20:02;;;;;;;14.88;4.13;;;14.60;99.90;;;;;;4972730;28;20886;-73
2022/07/14 03:22:46;;;;;;;15.77;4.05;;;14.50;99.90;;;;;;4987652;28;20429;-74
2022/07/14 03:25:31;;;;;;;13.77;3.72;;;14.40;99.90;;;;;;4994103;28;20456;-73
2022/07/14 03:28:15;;;;;;;14.98;3.95;;;14.20;99.90;;;;;;4968479;28;20763;-73
2022/07/14 03:30:59;;;;;;;10.77;3.78;;;14.10;99.90;;;;;;4987135;28;20605;-73
2022/07/14 03:33:43;;;;;;;13.85;4.10;;;14.10;99.90;;;;;;4986655;28;20462;-73
2022/07/14 03:36:28;;;;;;;13.05;4.10;;;14.00;99.90;;;;;;4990440;28;20477;-72
2022/07/14 03:39:13;;;;;;;17.23;4.38;;;13.90;99.90;;;;;;4990586;28;20401;-73
2022/07/14 03:41:57;;;;;;;14.98;4.35;;;13.90;99.90;;;;;;4987737;28;20453;-73
2022/07/14 03:44:41;;;;;;;14.70;4.22;;;13.90;99.90;;;;;;4986475;28;20408;-73
2022/07/14 03:47:25;;;;;;;15.57;4.43;;;13.80;99.90;;;;;;4973337;28;20418;-73
2022/07/14 03:50:10;;;;;;;14.98;4.95;;;13.80;99.90;;;;;;4967082;28;20457;-74
2022/07/14 03:52:54;;;;;;;13.63;3.97;;;13.80;99.90;;;;;;4970930;28;20472;-76
2022/07/14 03:55:38;;;;;;;15.57;4.53;;;13.80;99.90;;;;;;4984934;28;20468;-75
2022/07/14 03:58:23;;;;;;;13.60;4.50;;;13.80;99.90;;;;;;4973485;28;20407;-74
2022/07/14 04:01:07;;;;;;;14.13;4.60;;;13.90;99.90;;;;;;4971819;28;20770;-75
2022/07/14 04:03:52;;;;;;;14.57;4.77;;;13.90;99.90;;;;;;4984961;28;20539;-75
2022/07/14 04:06:36;;;;;;;14.85;4.53;;;13.80;99.90;;;;;;4975818;28;20433;-73
2022/07/14 04:09:20;;;;;;;12.63;4.25;;;13.80;99.90;;;;;;4971255;28;20461;-74
2022/07/14 04:12:05;;;;;;;15.13;4.57;;;13.70;99.90;;;;;;4973656;28;20417;-75
2022/07/14 04:14:50;;;;;;;12.65;4.35;;;13.70;99.90;;;;;;4984847;28;20417;-74
2022/07/14 04:17:34;;;;;;;11.38;4.88;;;13.70;99.90;;;;;;4962751;28;20449;-75
2022/07/14 04:20:18;;;;;;;12.33;4.67;;;13.80;99.90;;;;;;4968480;28;20774;-74
2022/07/14 04:23:02;;;;;;;14.20;4.73;;;13.80;99.90;;;;;;4973312;28;20831;-74
2022/07/14 04:25:47;;;;;;;14.25;4.80;;;13.80;99.90;;;;;;4973710;28;20410;-74
2022/07/14 04:28:32;;;;;;;12.70;4.75;;;13.80;99.90;;;;;;4986980;28;20472;-75
2022/07/14 04:31:17;;;;;;;13.85;5.43;;;13.80;99.90;;;;;;4970000;28;20422;-74
2022/07/14 04:34:01;;;;;;;14.98;5.68;;;13.80;99.90;;;;;;4987579;28;20452;-74
2022/07/14 04:36:45;;;;;;;19.17;5.70;;;13.80;99.90;;;;;;4981457;28;20494;-74
2022/07/14 04:39:30;;;;;;;18.38;5.57;;;13.80;99.90;;;;;;4987290;28;20418;-74
2022/07/14 04:42:14;;;;;;;14.93;5.10;;;13.80;99.90;;;;;;4977390;28;20472;-75
2022/07/14 04:44:58;;;;;;;13.73;5.03;;;13.80;99.90;;;;;;4971487;28;20421;-75
2022/07/14 04:47:42;;;;;;;13.73;5.47;;;13.90;99.90;;;;;;4969100;28;20480;-74
2022/07/14 04:53:29;;;;;;;18.67;5.80;;;13.90;99.90;;;;;;4987052;28;20456;-74
2022/07/14 04:56:13;;;;;;;13.50;5.27;;;13.90;99.90;;;;;;4971857;28;20945;-74
2022/07/14 04:58:58;;;;;;;13.07;5.65;;;13.90;99.90;;;;;;4971253;28;20526;-74
2022/07/14 05:01:42;;;;;;;20.58;5.28;;;14.00;99.90;;;;;;4980959;28;20502;-74
2022/07/14 05:04:27;;;;;;;15.25;5.28;;;14.10;99.90;;;;;;4982569;28;20409;-75
2022/07/14 05:07:11;;;;;;;12.88;5.18;;;14.10;99.90;;;;;;4981118;28;20444;-73
2022/07/14 05:09:55;;;;;;;14.93;5.90;;;14.20;99.90;;;;;;4989650;28;20545;-73
2022/07/14 05:12:39;;;;;;;15.70;5.65;;;14.20;99.90;;;;;;4986859;28;20421;-72
2022/07/14 05:15:23;;;;;;;14.70;5.90;;;14.30;99.90;;;;;;4986917;28;20978;-73
2022/07/14 05:18:07;;;;;;;20.15;5.72;;;14.30;99.90;;;;;;4989480;28;20814;-75
2022/07/14 05:20:51;;;;;;;17.70;5.85;;;14.40;99.90;;;;;;4974110;28;20413;-75
2022/07/14 05:23:36;;;;;;;13.75;5.43;;;14.40;99.90;;;;;;4987233;28;20417;-75
2022/07/14 05:26:20;;;;;;;18.05;5.30;;;14.50;99.90;;;;;;4986447;28;20460;-75
2022/07/14 05:29:05;;;;;;;12.43;5.60;;;14.50;99.90;;;;;;4976498;28;20465;-76
2022/07/14 05:31:51;;;;;;;15.13;5.45;;;14.60;99.90;;;;;;4974792;28;20460;-73
2022/07/14 05:34:42;;;;;;;16.88;5.22;;;14.60;99.90;;;;;;4970348;28;20460;-72
2022/07/14 05:37:27;;;;;;;13.65;5.30;;;14.70;99.90;;;;;;4970128;28;20426;-74
2022/07/14 05:40:11;;;;;;;15.52;5.40;;;14.70;99.90;;;;;;4974109;28;20417;-73
2022/07/14 05:42:55;;;;;;;13.27;4.70;;;14.80;99.90;;;;;;4985451;28;20445;-73
2022/07/14 05:45:40;;;;;;;13.37;5.20;;;14.90;99.90;;;;;;4972039;28;20403;-72
2022/07/14 05:48:24;;;;;;;14.93;5.10;;;15.00;99.90;;;;;;4975538;28;20501;-74
2022/07/14 05:51:14;;;;;;;17.70;5.00;;;15.10;99.90;;;;;;4976228;28;20430;-73
2022/07/14 05:53:58;;;;;;;15.43;4.75;;;15.10;99.90;;;;;;4972850;28;20468;-74
2022/07/14 05:56:42;;;;;;;12.00;4.22;;;15.30;99.90;;;;;;4971322;28;20416;-73
2022/07/14 05:59:26;;;;;;;11.55;4.20;;;15.30;99.90;;;;;;4986048;28;20510;-73
2022/07/14 06:02:10;;;;;;;12.75;4.30;;;15.40;99.90;;;;;;4972559;28;20509;-75
2022/07/14 06:04:54;;;;;;;11.45;4.70;;;15.50;99.90;;;;;;4973348;28;20397;-74
2022/07/14 06:07:39;;;;;;;13.65;4.50;;;15.60;99.90;;;;;;4991598;28;20408;-73
2022/07/14 06:10:23;;;;;;;11.32;4.00;;;15.70;99.90;;;;;;4973923;28;20481;-72
2022/07/14 06:13:07;;;;;;;14.38;4.68;;;15.80;99.90;;;;;;4987068;28;20429;-75
2022/07/14 06:15:51;;;;;;;13.38;4.50;;;15.90;99.90;;;;;;4983423;28;20780;-74
2022/07/14 06:18:35;;;;;;;11.32;4.57;;;16.00;99.90;;;;;;4985412;28;20897;-73
2022/07/14 06:21:19;;;;;;;12.60;4.18;;;16.00;99.90;;;;;;4972141;28;20413;-74
2022/07/14 06:24:04;;;;;;;14.55;4.20;;;16.20;99.90;;;;;;4989289;28;20407;-72
2022/07/14 06:26:48;;;;;;;10.68;3.90;;;16.30;99.90;;;;;;4970135;28;20980;-73
2022/07/14 06:29:32;;;;;;;11.45;2.85;;;16.50;99.90;;;;;;4987405;28;20425;-74
2022/07/14 06:32:16;;;;;;;10.85;2.58;;;16.60;99.90;;;;;;4982198;28;20413;-74
2022/07/14 06:35:00;;;;;;;10.77;2.60;;;16.60;99.90;;;;;;4986623;28;20417;-74
2022/07/14 06:37:44;;;;;;;9.48;2.00;;;16.70;99.90;;;;;;4984286;28;20439;-74
2022/07/14 06:40:28;;;;;;;7.72;1.70;;;16.70;99.90;;;;;;4982393;28;20510;-75
2022/07/14 06:43:13;;;;;;;8.13;1.85;;;16.90;99.90;;;;;;4989005;28;20445;-74
2022/07/14 06:45:58;;;;;;;7.53;1.67;;;16.90;99.90;;;;;;4988321;28;20415;-75
2022/07/14 06:48:43;;;;;;;8.20;1.90;;;16.90;99.90;;;;;;4990554;28;20414;-74
2022/07/14 06:51:28;;;;;;;9.60;1.93;;;17.00;99.90;;;;;;4985723;28;20825;-74
2022/07/14 06:54:12;;;;;;;9.68;1.95;;;17.00;99.90;;;;;;4973224;28;20468;-74
2022/07/14 06:56:56;;;;;;;7.35;1.75;;;17.20;99.90;;;;;;4986387;28;20436;-74
2022/07/14 06:59:40;;;;;;;8.27;1.58;;;17.30;99.90;;;;;;4980428;28;20421;-73
2022/07/14 07:02:25;;;;;;;5.93;1.52;;;17.30;99.90;;;;;;4973033;28;20464;-74
2022/07/14 07:08:13;;;;;;;5.68;1.42;;;17.40;99.90;;;;;;4981563;28;20746;-74
2022/07/14 07:10:58;;;;;;;7.32;1.45;;;17.50;99.90;;;;;;4980441;28;20434;-74
2022/07/14 07:13:41;;;;;;;7.67;1.40;;;17.60;99.90;;;;;;4980604;28;20437;-75
2022/07/14 07:16:25;;;;;;;7.83;1.47;;;17.60;99.90;;;;;;4973227;28;20405;-73
2022/07/14 07:19:10;;;;;;;6.22;1.45;;;17.70;99.90;;;;;;4972277;28;20526;-74
2022/07/14 07:21:53;;;;;;;5.82;1.50;;;17.80;99.90;;;;;;4988442;28;20517;-74
2022/07/14 07:24:38;;;;;;;8.25;1.63;;;17.90;99.90;;;;;;4964786;28;20466;-74
2022/07/14 07:27:22;;;;;;;7.03;1.58;;;17.90;99.90;;;;;;4973228;28;20405;-75
2022/07/14 07:30:08;;;;;;;6.15;1.60;;;17.90;99.90;;;;;;4982223;28;20422;-75
2022/07/14 07:32:52;;;;;;;8.30;1.50;;;17.90;99.90;;;;;;4980983;28;20684;-75
2022/07/14 07:35:38;;;;;;;7.35;1.52;;;17.90;99.90;;;;;;4979433;28;20419;-75
2022/07/14 07:38:22;;;;;;;8.23;1.80;;;17.90;99.90;;;;;;4967804;28;20421;-75
2022/07/14 07:41:06;;;;;;;7.40;1.70;;;18.00;99.90;;;;;;4980711;28;20442;-75
2022/07/14 07:43:50;;;;;;;7.60;1.50;;;18.00;99.90;;;;;;4967845;28;20433;-75
2022/07/14 07:46:34;;;;;;;5.15;1.40;;;18.10;99.90;;;;;;4964803;28;20448;-76
2022/07/14 07:49:18;;;;;;;7.90;1.58;;;18.00;99.90;;;;;;4967541;28;20469;-75
2022/07/14 07:52:03;;;;;;;7.75;1.77;;;18.10;99.90;;;;;;4983283;28;20433;-75
2022/07/14 07:54:48;;;;;;;9.60;2.05;;;18.20;99.90;;;;;;4981783;28;20449;-75
2022/07/14 07:57:32;;;;;;;7.20;1.55;;;18.30;99.90;;;;;;4971341;28;21026;-75
2022/07/14 08:00:16;;;;;;;11.07;1.80;;;18.40;99.90;;;;;;4983939;28;20467;-74
2022/07/14 08:03:01;;;;;;;8.75;1.70;;;18.30;99.90;;;;;;4985275;28;20940;-75
2022/07/14 08:05:45;;;;;;;7.03;1.85;;;18.30;99.90;;;;;;4986821;28;20441;-74
2022/07/14 08:08:29;;;;;;;6.68;1.73;;;18.30;99.90;;;;;;4985265;28;20406;-75
2022/07/14 08:11:13;;;;;;;8.93;1.70;;;18.40;99.90;;;;;;4975496;28;20909;-74
2022/07/14 08:13:57;;;;;;;8.40;1.85;;;18.50;99.90;;;;;;4987202;28;20526;-75
2022/07/14 08:16:41;;;;;;;9.10;1.60;;;18.50;99.90;;;;;;4983207;28;20437;-74
2022/07/14 08:19:26;;;;;;;7.95;1.67;;;18.60;99.90;;;;;;4966621;28;20409;-75
2022/07/14 08:22:10;;;;;;;6.47;1.38;;;18.70;99.90;;;;;;4970985;28;20477;-75
2022/07/14 08:24:56;;;;;;;6.55;1.70;;;18.80;99.90;;;;;;4977571;28;20420;-75
2022/07/14 08:27:40;;;;;;;7.78;1.60;;;18.90;99.90;;;;;;4976264;28;20495;-73
2022/07/14 08:30:24;;;;;;;5.80;1.70;;;19.00;99.90;;;;;;4968160;28;20543;-75
2022/07/14 08:33:08;;;;;;;7.00;1.90;;;19.00;99.90;;;;;;4983986;28;20465;-75
2022/07/14 08:35:52;;;;;;;6.15;1.45;;;19.00;99.90;;;;;;4979098;28;20424;-74
2022/07/14 08:38:36;;;;;;;7.53;1.50;;;19.00;99.90;;;;;;4969429;28;20775;-73
2022/07/14 08:41:21;;;;;;;7.57;1.75;;;18.90;99.90;;;;;;4986445;28;20425;-75
2022/07/14 08:44:05;;;;;;;8.38;1.60;;;18.90;99.90;;;;;;4982998;28;20466;-75
2022/07/14 08:46:50;;;;;;;5.53;1.60;;;18.90;99.90;;;;;;4974975;28;20913;-75
2022/07/14 08:49:34;;;;;;;7.72;1.60;;;18.90;99.90;;;;;;4989113;28;20437;-75
2022/07/14 08:52:18;;;;;;;6.85;1.60;;;18.90;99.90;;;;;;4970661;28;20408;-74
2022/07/14 08:55:06;;;;;;;5.60;1.60;;;19.00;99.90;;;;;;4987197;28;20412;-74
2022/07/14 08:57:50;;;;;;;7.70;1.50;;;19.10;99.90;;;;;;4985528;28;20824;-74
2022/07/14 09:00:34;;;;;;;5.43;1.33;;;19.20;99.90;;;;;;4988240;28;20774;-74
2022/07/14 09:03:18;;;;;;;6.73;1.40;;;19.20;99.90;;;;;;4975387;28;20830;-75
2022/07/14 09:06:07;;;;;;;10.80;2.00;;;19.30;99.90;;;;;;4987365;28;20433;-76
2022/07/14 09:08:54;;;;;;;5.63;1.40;;;19.20;99.90;;;;;;4974854;28;20606;-75
2022/07/14 09:12:04;;;;;;;6.40;1.50;;;19.30;99.90;;;;;;4990116;28;20425;-75
2022/07/14 09:18:00;;;;;;;8.60;1.60;;;19.50;99.90;;;;;;4982887;28;20465;-73
2022/07/14 09:20:44;;;;;;;7.35;1.50;;;19.60;99.90;;;;;;4988538;28;20561;-75
2022/07/14 09:23:37;;;;;;;5.93;1.60;;;19.60;99.90;;;;;;4987640;28;20449;-75
2022/07/14 09:26:22;;;;;;;7.90;1.70;;;19.70;99.90;;;;;;4969044;28;20449;-75
2022/07/14 09:29:05;;;;;;;7.45;1.40;;;19.70;99.90;;;;;;4986302;28;20441;-75
2022/07/14 09:31:50;;;;;;;6.13;1.30;;;19.70;99.90;;;;;;4983121;28;20419;-74
2022/07/14 09:34:34;;;;;;;5.22;1.40;;;19.90;99.90;;;;;;4985670;28;20410;-75
2022/07/14 09:37:18;;;;;;;5.97;1.50;;;19.90;99.90;;;;;;4977931;28;20422;-75
2022/07/14 09:40:03;;;;;;;7.43;1.48;;;19.90;99.90;;;;;;4971623;28;20414;-75
2022/07/14 09:42:52;;;;;;;7.60;1.50;;;19.90;99.90;;;;;;4975159;28;20534;-75
2022/07/14 09:45:39;;;;;;;8.85;1.83;;;19.90;99.90;;;;;;4987290;28;20445;-75
2022/07/14 09:48:23;;;;;;;9.35;1.75;;;20.00;99.90;;;;;;4984873;28;20456;-75
2022/07/14 09:51:08;;;;;;;8.10;1.90;;;20.00;99.90;;;;;;4985383;28;20560;-75
2022/07/14 09:53:53;;;;;;;6.75;1.77;;;20.10;99.90;;;;;;4987738;28;20414;-75
2022/07/14 09:56:37;;;;;;;9.25;1.73;;;20.10;99.90;;;;;;4987247;28;20449;-75
2022/07/14 09:59:21;;;;;;;4.25;1.10;;;20.20;99.90;;;;;;4986676;28;20476;-74
2022/07/14 10:02:05;;;;;;;4.82;1.13;;;20.30;99.90;;;;;;4972558;28;20401;-74
2022/07/14 10:04:51;;;;;;;6.87;1.40;;;20.50;99.90;;;;;;4990538;28;20433;-74
2022/07/14 10:07:38;;;;;;;6.75;1.55;;;20.60;99.90;;;;;;4984537;28;20189;-74
2022/07/14 10:10:23;;;;;;;2.58;1.13;;;20.60;99.90;;;;;;4973370;28;20211;-75
2022/07/14 10:13:08;;;;;;;3.90;1.25;;;20.60;99.90;;;;;;4987676;28;20220;-74
2022/07/14 10:15:55;;;;;;;3.85;1.00;;;20.60;99.90;;;;;;4970843;28;20216;-75
2022/07/14 10:18:42;;;;;;;4.53;1.40;;;20.70;99.90;;;;;;4990664;28;20196;-75
2022/07/14 10:21:27;;;;;;;2.60;0.85;;;20.70;99.90;;;;;;4975217;28;20286;-75
2022/07/14 10:24:12;;;;;;;12.30;1.40;;;20.80;99.90;;;;;;4972772;28;20205;-75
2022/07/14 10:26:58;;;;;;;4.55;1.05;;;20.80;99.90;;;;;;4973535;28;20217;-74
2022/07/14 10:29:42;;;;;;;7.20;2.00;;;20.80;99.90;;;;;;4988180;28;20284;-74
2022/07/14 10:32:33;;;;;;;7.28;1.55;;;20.90;99.90;;;;;;4973185;28;20657;-74
2022/07/14 10:35:54;;;;;;;7.75;1.10;;;20.80;99.90;;;;;;4986805;28;20263;-75
2022/07/14 10:39:10;;;;;;;6.50;1.23;;;20.80;99.90;;;;;;4958775;28;20253;-73
2022/07/14 10:42:40;;;;;;;3.78;1.40;;;20.80;99.90;;;;;;4991216;28;20184;-74
2022/07/14 10:45:25;;;;;;;5.15;1.20;;;20.90;99.90;;;;;;4971138;28;20216;-74
2022/07/14 10:48:27;;;;;;;3.42;0.90;;;20.80;99.90;;;;;;4989160;28;20716;-74
2022/07/14 10:51:21;;;;;;;6.28;0.90;;;20.90;99.90;;;;;;4976682;28;20292;-74
2022/07/14 10:54:12;;;;;;;3.65;1.10;;;20.90;99.90;;;;;;4974464;28;20181;-74
2022/07/14 10:57:15;;;;;;;6.38;1.45;;;21.00;99.90;;;;;;4973015;28;20212;-74
2022/07/14 11:00:00;;;;;;;3.67;1.05;;;21.10;99.90;;;;;;4974070;28;20631;-74
2022/07/14 11:02:45;;;;;;;6.72;1.33;;;21.10;99.90;;;;;;4987849;28;20201;-75
2022/07/14 11:05:29;;;;;;;3.83;1.13;;;21.10;99.90;;;;;;4973535;28;20216;-74
2022/07/14 11:08:14;;;;;;;7.70;1.33;;;21.10;99.90;;;;;;4972442;28;20244;-74
2022/07/14 11:11:00;;;;;;;5.53;0.85;;;21.10;99.90;;;;;;4985056;28;20209;-74
2022/07/14 11:14:05;;;;;;;6.10;0.77;;;21.10;99.90;;;;;;4977824;28;20817;-74
2022/07/14 11:16:50;;;;;;;3.67;0.85;;;21.20;99.90;;;;;;4968973;28;20263;-74
2022/07/14 11:19:38;;;;;;;7.57;1.10;;;21.30;99.90;;;;;;4981574;28;20208;-76
2022/07/14 11:22:24;;;;;;;6.00;0.90;;;21.40;99.90;;;;;;4972708;28;20276;-76
2022/07/14 11:25:25;;;;;;;3.35;1.20;;;21.40;99.90;;;;;;4987183;28;20212;-76
2022/07/14 11:28:37;;;;;;;3.75;0.82;;;21.40;99.90;;;;;;4972512;28;20187;-76
2022/07/14 11:31:22;;;;;;;3.88;0.80;;;21.40;99.90;;;;;;4972160;28;20666;-76
2022/07/14 11:37:28;;;;;;;3.20;0.80;;;21.20;99.90;;;;;;4989415;28;20200;-76
2022/07/14 11:40:43;;;;;;;4.40;1.10;;;21.20;99.90;;;;;;4977550;28;20204;-76
2022/07/14 11:43:31;;;;;;;3.22;0.85;;;21.20;99.90;;;;;;4976906;28;20272;-76
2022/07/14 11:46:17;;;;;;;1.25;0.63;;;21.20;99.90;;;;;;4985708;28;20239;-77
2022/07/14 11:49:02;;;;;;;1.60;0.85;;;21.10;99.90;;;;;;4973271;28;20185;-75
2022/07/14 11:51:47;;;;;;;4.45;1.10;;;21.10;99.90;;;;;;4971030;28;20271;-76
2022/07/14 11:54:32;;;;;;;6.15;1.08;;;21.10;99.90;;;;;;4988067;28;20252;-75
2022/07/14 11:57:16;;;;;;;2.90;0.70;;;21.10;99.90;;;;;;4984267;28;20200;-76
2022/07/14 12:00:09;;;;;;;4.03;0.82;;;21.10;99.90;;;;;;4973164;28;20358;-75
2022/07/14 12:02:56;;;;;;;6.53;1.10;;;21.20;99.90;;;;;;4984609;28;20185;-76
2022/07/14 12:05:40;;;;;;;11.15;1.20;;;21.20;99.90;;;;;;4974556;28;20304;-75
2022/07/14 12:08:31;;;;;;;4.85;0.73;;;21.20;99.90;;;;;;4974024;28;20260;-74
2022/07/14 12:11:15;;;;;;;2.13;0.57;;;21.20;99.90;;;;;;4971365;28;20204;-75
2022/07/14 12:13:59;;;;;;;1.65;0.57;;;21.10;99.90;;;;;;4972165;28;20208;-76
2022/07/14 12:16:44;;;;;;;3.42;0.70;;;21.20;99.90;;;;;;4983601;28;20450;-77
2022/07/14 12:19:32;;;;;;;5.05;0.65;;;21.30;99.90;;;;;;4974072;28;20185;-76
2022/07/14 12:22:16;;;;;;;3.45;0.70;;;21.30;99.90;;;;;;4987691;28;20668;-75
2022/07/14 12:25:01;;;;;;;1.10;0.40;;;21.40;99.90;;;;;;4972826;28;20243;-75
2022/07/14 12:27:46;;;;;;;2.03;0.40;;;21.40;99.90;;;;;;4968142;28;20256;-74
2022/07/14 12:30:59;;;;;;;1.83;0.82;;;21.40;99.90;;;;;;4971069;28;20328;-74
2022/07/14 12:33:44;;;;;;;2.15;0.52;;;21.50;99.90;;;;;;4970284;28;20246;-76
2022/07/14 12:36:30;;;;;;;1.30;0.52;;;21.50;99.90;;;;;;4966852;28;20272;-76
2022/07/14 12:39:20;;;;;;;2.17;0.63;;;21.50;99.90;;;;;;4969751;28;20264;-75
2022/07/14 12:42:08;;;;;;;2.25;0.47;;;21.50;99.90;;;;;;4971122;28;20281;-76
2022/07/14 12:45:09;;;;;;;0.73;0.57;;;21.50;99.90;;;;;;4983776;28;20240;-76
2022/07/14 12:48:03;;;;;;;1.33;0.50;;;21.50;99.90;;;;;;4982729;28;20196;-76
2022/07/14 12:50:51;;;;;;;4.90;0.88;;;21.60;99.90;;;;;;4985727;28;20336;-75
2022/07/14 12:53:38;;;;;;;6.20;0.90;;;21.60;99.90;;;;;;4980554;28;20209;-77
2022/07/14 12:56:23;;;;;;;3.20;0.50;;;21.60;99.90;;;;;;4969389;28;20260;-76
2022/07/14 12:59:10;;;;;;;1.33;0.40;;;21.60;99.90;;;;;;4971395;28;20192;-76
2022/07/14 13:01:56;;;;;;;7.22;0.80;;;21.60;99.90;;;;;;4976101;28;20235;-76
2022/07/14 13:04:49;;;;;;;5.28;0.82;;;21.60;99.90;;;;;;4984927;28;20248;-76
2022/07/14 13:07:39;;;;;;;1.00;0.47;;;21.50;99.90;;;;;;4980740;28;20186;-76
2022/07/14 13:10:26;;;;;;;1.30;0.40;;;21.60;99.90;;;;;;4983370;28;20209;-76
2022/07/14 13:13:28;;;;;;;1.83;0.55;;;21.60;99.90;;;;;;4969930;28;20211;-75
2022/07/14 13:16:32;;;;;;;5.05;0.95;;;21.70;99.90;;;;;;4971956;28;20212;-78
2022/07/14 13:19:20;;;;;;;0.55;0.40;;;21.70;99.90;;;;;;4987637;28;20221;-75
2022/07/14 13:22:06;;;;;;;4.63;1.05;;;21.70;99.90;;;;;;4986549;28;20244;-77
2022/07/14 13:24:55;;;;;;;2.20;0.57;;;21.70;99.90;;;;;;4986908;28;20192;-77
2022/07/14 13:27:39;;;;;;;1.10;0.47;;;21.70;99.90;;;;;;4987213;28;20552;-77
2022/07/14 13:30:23;;;;;;;2.30;0.60;;;21.70;99.90;;;;;;4967656;28;20216;-76
2022/07/14 13:33:07;;;;;;;1.88;0.55;;;21.70;99.90;;;;;;4987012;28;20192;-76
2022/07/14 13:35:53;;;;;;;9.32;0.85;;;21.70;99.90;;;;;;4987448;28;20251;-77
2022/07/14 13:38:39;;;;;;;0.68;0.40;;;21.70;99.90;;;;;;4987132;28;20185;-75
2022/07/14 13:41:23;;;;;;;8.45;1.40;;;21.70;99.90;;;;;;4985935;28;20276;-74
2022/07/14 13:44:08;;;;;;;2.35;0.52;;;21.70;99.90;;;;;;4991180;28;20200;-74
2022/07/14 13:46:53;;;;;;;2.78;0.55;;;21.50;99.90;;;;;;4966153;28;20295;-75
2022/07/14 13:52:40;;;;;;;1.88;0.80;;;21.40;99.90;;;;;;4984518;28;20240;-74
2022/07/14 13:55:24;;;;;;;1.63;0.50;;;21.30;99.90;;;;;;4986693;28;20360;-74
2022/07/14 13:58:09;;;;;;;1.70;0.60;;;21.20;99.90;;;;;;4989372;28;20199;-75
2022/07/14 14:00:54;;;;;;;2.47;0.93;;;21.10;99.90;;;;;;4973161;28;20204;-75
2022/07/14 14:03:40;;;;;;;2.65;0.60;;;21.00;99.90;;;;;;4977049;28;20219;-74
2022/07/14 14:06:24;;;;;;;3.30;1.00;;;20.90;99.90;;;;;;4990915;28;20212;-75
2022/07/14 14:09:10;;;;;;;1.40;0.50;;;20.80;99.90;;;;;;4968719;28;20251;-75
2022/07/14 14:11:54;;;;;;;1.40;0.50;;;20.90;99.90;;;;;;4987654;28;20213;-75
2022/07/14 14:14:38;;;;;;;2.58;0.75;;;20.80;99.90;;;;;;4972653;28;20189;-74
2022/07/14 14:17:22;;;;;;;3.40;0.60;;;20.70;99.90;;;;;;4974878;28;20227;-75
2022/07/14 14:20:07;;;;;;;1.23;0.60;;;20.60;99.90;;;;;;4989776;28;20201;-75
2022/07/14 14:22:52;;;;;;;2.05;0.60;;;20.50;99.90;;;;;;4974901;28;20192;-75
2022/07/14 14:25:37;;;;;;;2.60;0.50;;;20.50;99.90;;;;;;4973948;28;20897;-75
2022/07/14 14:28:21;;;;;;;4.68;0.60;;;20.50;99.90;;;;;;4973271;28;20205;-75
2022/07/14 14:31:06;;;;;;;0.90;0.55;;;20.40;99.90;;;;;;4989265;28;20204;-74
2022/07/14 14:33:50;;;;;;;3.97;0.75;;;20.40;99.90;;;;;;4975082;28;20208;-73
2022/07/14 14:36:34;;;;;;;1.75;0.60;;;20.40;99.90;;;;;;4977531;28;20231;-74
2022/07/14 14:39:18;;;;;;;0.90;0.52;;;20.40;99.90;;;;;;4986593;28;20665;-74